YM Venus — 9HCB8 — position and weather

sailwx.info

Track history (hours):
 
Tides and Currents Weather Stations Pressure Air Temp Water Temp Dewpoint Dewpoint Depression Visibility Wind Speed Wind Dir Waves Ship Positions

YM Venus

Last reported at 2017-Aug-17 07:20 UTC. Time now 2017-Aug-21 15:39 UTC.
Position N 37°04' E 015°49'.

Length 105 m; draft 5 m.

Type: Tanker. MMSI: 215826000.

Date/timePositionNaut miles runAvg speedWind from/ knotsBaromVisibWave heightAir tempDewpointWater temp
2017-Aug-17 07:20N 37°04' E 015°49'412.3
2017-Aug-17 07:00N 37°03' E 015°54'611.9
2017-Aug-17 06:30N 37°01' E 016°02'611.7
2017-Aug-17 06:00N 36°60' E 016°09'611.7
2017-Aug-17 05:30N 36°58' E 016°16'611.8
2017-Aug-17 05:00N 36°56' E 016°22'611.9
2017-Aug-17 04:28N 36°54' E 016°30'  
2017-Aug-13 19:25N 31°22' E 032°19'1210.5
2017-Aug-13 18:20N 31°31' E 032°13'412.4
2017-Aug-13 18:00N 31°34' E 032°09'1012.3
2017-Aug-13 17:11N 31°42' E 032°01'312.5
2017-Aug-13 16:57N 31°44' E 031°59'712.6
2017-Aug-13 16:24N 31°48' E 031°53'512.7
2017-Aug-13 16:00N 31°52' E 031°48'  
Track history (hours):
 
Tides and Currents Weather Stations Pressure Air Temp Water Temp Dewpoint Dewpoint Depression Visibility Wind Speed Wind Dir Waves Ship Positions

YM Venus

Last reported at 2017-Aug-17 07:20 UTC. Time now 2017-Aug-21 15:39 UTC.
Position N 37°04' E 015°49'.

Length 105 m; draft 5 m.

Type: Tanker. MMSI: 215826000.

Date/timePositionNaut miles runAvg speedWind from/ knotsBaromVisibWave heightAir tempDewpointWater temp
2017-Aug-17 07:20N 37°04' E 015°49'412.3
2017-Aug-17 07:00N 37°03' E 015°54'611.9
2017-Aug-17 06:30N 37°01' E 016°02'611.7
2017-Aug-17 06:00N 36°60' E 016°09'611.7
2017-Aug-17 05:30N 36°58' E 016°16'611.8
2017-Aug-17 05:00N 36°56' E 016°22'611.9
2017-Aug-17 04:28N 36°54' E 016°30'  
2017-Aug-13 19:25N 31°22' E 032°19'1210.5
2017-Aug-13 18:20N 31°31' E 032°13'412.4
2017-Aug-13 18:00N 31°34' E 032°09'1012.3
2017-Aug-13 17:11N 31°42' E 032°01'312.5
2017-Aug-13 16:57N 31°44' E 031°59'712.6
2017-Aug-13 16:24N 31°48' E 031°53'512.7
2017-Aug-13 16:00N 31°52' E 031°48'  

Dump ship's entire track history